Time;durP1;ratioP1;P1;durP2;ratioP2;P2;SDS_P1;SDS_P2;PMS_P1;PMS_P2;Temp;Humidity;BMP_temperature;BMP_pressure;BME280_temperature;BME280_humidity;BME280_pressure;Samples;Min_cycle;Max_cycle;Signal;HPM_P1;HPM_P2
2024/01/07 00:02:07;;;;;;;0.10;0.10;;;8.90;99.90;;;;;;5011771;28;20054;-76
2024/01/07 00:04:34;;;;;;;0.13;0.13;;;8.90;99.90;;;;;;4980766;28;20038;-75
2024/01/07 00:07:00;;;;;;;0.15;0.15;;;9.00;99.90;;;;;;5044530;28;20009;-76
2024/01/07 00:09:26;;;;;;;0.20;0.20;;;8.90;99.90;;;;;;5033980;28;20053;-76
2024/01/07 00:11:51;;;;;;;0.10;0.10;;;8.90;99.90;;;;;;5033108;28;20033;-76
2024/01/07 00:14:17;;;;;;;0.20;0.20;;;8.90;99.90;;;;;;5033321;28;20576;-76
2024/01/07 00:16:50;;;;;;;0.20;0.20;;;8.90;99.90;;;;;;5035394;28;20029;-74
2024/01/07 00:19:16;;;;;;;8.95;8.60;;;8.90;99.90;;;;;;5030041;28;20077;-76
2024/01/07 00:21:45;;;;;;;0.10;0.10;;;8.90;99.90;;;;;;5030753;28;20044;-76
2024/01/07 00:24:14;;;;;;;0.20;0.20;;;8.90;99.90;;;;;;5027566;28;20033;-76
2024/01/07 00:26:39;;;;;;;0.20;0.20;;;8.90;99.90;;;;;;5025949;28;20041;-75
2024/01/07 00:29:06;;;;;;;0.20;0.20;;;8.90;99.90;;;;;;5026004;28;20029;-75
2024/01/07 00:31:31;;;;;;;0.20;0.20;;;8.90;99.90;;;;;;5026903;28;20026;-75
2024/01/07 00:33:57;;;;;;;0.10;0.10;;;8.90;99.90;;;;;;5022842;28;20091;-75
2024/01/07 00:36:24;;;;;;;0.20;0.20;;;9.00;99.90;;;;;;5027633;28;20014;-75
2024/01/07 00:38:50;;;;;;;0.10;0.10;;;9.00;99.90;;;;;;5025470;28;20084;-76
2024/01/07 00:41:16;;;;;;;0.10;0.10;;;9.00;99.90;;;;;;5027207;28;20025;-76
2024/01/07 00:43:42;;;;;;;0.10;0.10;;;9.00;99.90;;;;;;5025087;28;20557;-76
2024/01/07 00:46:07;;;;;;;0.10;0.10;;;9.00;99.90;;;;;;5024210;28;20712;-76
2024/01/07 00:48:33;;;;;;;0.10;0.10;;;9.00;99.90;;;;;;5029116;28;20033;-76
2024/01/07 00:51:24;;;;;;;0.20;0.20;;;9.00;99.90;;;;;;5044140;28;20017;-76
2024/01/07 00:54:02;;;;;;;0.10;0.10;;;9.00;99.90;;;;;;5049360;28;20089;-76
2024/01/07 00:56:28;;;;;;;0.10;0.10;;;9.00;99.90;;;;;;5051222;28;20033;-78
2024/01/07 00:58:54;;;;;;;0.10;0.10;;;9.10;99.90;;;;;;5042395;28;20080;-75
2024/01/07 01:01:43;;;;;;;0.20;0.20;;;9.10;99.90;;;;;;5037199;28;20028;-76
2024/01/07 01:04:13;;;;;;;0.10;0.10;;;9.00;99.90;;;;;;4980465;28;20044;-79
2024/01/07 01:06:49;;;;;;;0.20;0.20;;;9.10;99.90;;;;;;5051690;28;20037;-75
2024/01/07 01:09:15;;;;;;;0.10;0.10;;;9.10;99.90;;;;;;5038692;28;20026;-74
2024/01/07 01:11:43;;;;;;;0.20;0.20;;;9.10;99.90;;;;;;5039401;28;20029;-75
2024/01/07 01:14:12;;;;;;;0.20;0.20;;;9.00;99.90;;;;;;5051331;28;20032;-75
2024/01/07 01:16:40;;;;;;;1.17;1.17;;;9.00;99.90;;;;;;5004292;28;20025;-75
2024/01/07 01:19:06;;;;;;;0.20;0.20;;;9.00;99.90;;;;;;5033714;28;20029;-77
2024/01/07 01:21:32;;;;;;;0.20;0.20;;;9.00;99.90;;;;;;5016383;28;20030;-76
2024/01/07 01:24:00;;;;;;;0.20;0.20;;;9.00;99.90;;;;;;5010489;28;20022;-78
2024/01/07 01:26:26;;;;;;;0.52;0.52;;;9.00;99.90;;;;;;5016570;28;20029;-75
2024/01/07 01:28:52;;;;;;;0.20;0.20;;;9.00;99.90;;;;;;5034951;28;20044;-75
2024/01/07 01:31:18;;;;;;;0.28;0.28;;;9.00;99.90;;;;;;5033706;28;20653;-76
2024/01/07 01:34:02;;;;;;;0.20;0.20;;;9.00;99.90;;;;;;5032261;28;20036;-75
2024/01/07 01:36:31;;;;;;;0.20;0.20;;;9.00;99.90;;;;;;5037843;28;20028;-75
2024/01/07 01:38:57;;;;;;;0.20;0.20;;;9.00;99.90;;;;;;5031540;28;20025;-75
2024/01/07 01:41:24;;;;;;;0.20;0.20;;;9.00;99.90;;;;;;5041794;28;20028;-75
2024/01/07 01:43:50;;;;;;;0.20;0.20;;;9.00;99.90;;;;;;5048085;28;20047;-75
2024/01/07 01:46:16;;;;;;;0.20;0.20;;;9.00;99.90;;;;;;5050336;28;20025;-76
2024/01/07 01:48:42;;;;;;;0.20;0.20;;;9.00;99.90;;;;;;5052596;28;20034;-76
2024/01/07 01:51:12;;;;;;;0.10;0.10;;;9.00;99.90;;;;;;5036908;28;20030;-75
2024/01/07 01:54:12;;;;;;;0.20;0.20;;;9.00;99.90;;;;;;5055046;28;20016;-74
2024/01/07 02:00:03;;;;;;;0.20;0.20;;;9.10;99.90;;;;;;5054929;28;20052;-75
2024/01/07 02:02:44;;;;;;;0.20;0.20;;;9.10;99.90;;;;;;5028283;28;20044;-76
2024/01/07 02:05:10;;;;;;;1.23;1.20;;;9.10;99.90;;;;;;5043949;28;20041;-75
2024/01/07 02:07:35;;;;;;;0.20;0.20;;;9.10;99.90;;;;;;5027802;28;20091;-78
2024/01/07 02:10:12;;;;;;;0.20;0.20;;;9.20;99.90;;;;;;5050708;28;20025;-76
2024/01/07 02:12:39;;;;;;;0.20;0.20;;;9.10;99.90;;;;;;5008398;28;20060;-75
2024/01/07 02:15:08;;;;;;;2.13;2.05;;;9.10;99.90;;;;;;5034430;28;20030;-75
2024/01/07 02:17:34;;;;;;;3.97;3.83;;;9.00;99.90;;;;;;5033565;28;20065;-76
2024/01/07 02:20:06;;;;;;;0.20;0.20;;;9.10;99.90;;;;;;5030869;28;20056;-75
2024/01/07 02:22:33;;;;;;;0.30;0.30;;;9.20;99.90;;;;;;5030908;28;20057;-76
2024/01/07 02:25:00;;;;;;;0.20;0.20;;;9.20;99.90;;;;;;5030615;28;20214;-75
2024/01/07 02:27:27;;;;;;;3.80;3.65;;;9.10;99.90;;;;;;5046005;28;20484;-76
2024/01/07 02:29:54;;;;;;;0.20;0.20;;;9.10;99.90;;;;;;5040662;28;20558;-75
2024/01/07 02:32:20;;;;;;;1.88;1.80;;;9.00;99.90;;;;;;5035694;28;20014;-75
2024/01/07 02:34:47;;;;;;;0.20;0.20;;;9.00;99.90;;;;;;5010875;28;20049;-75
2024/01/07 02:37:15;;;;;;;0.30;0.30;;;8.60;99.90;;;;;;5029522;28;20197;-75
2024/01/07 02:39:41;;;;;;;1.10;1.10;;;8.80;99.90;;;;;;5034429;28;20025;-75
2024/01/07 02:42:07;;;;;;;1.65;1.65;;;8.60;99.90;;;;;;5024090;28;20033;-75
2024/01/07 02:44:33;;;;;;;0.30;0.30;;;8.80;99.90;;;;;;5030748;28;20038;-75
2024/01/07 02:46:59;;;;;;;0.75;0.73;;;8.80;99.90;;;;;;5020916;28;20568;-76
2024/01/07 02:49:26;;;;;;;0.20;0.20;;;8.70;99.90;;;;;;5022092;28;20503;-75
2024/01/07 02:52:01;;;;;;;0.10;0.10;;;8.70;99.90;;;;;;5041725;28;20022;-75
2024/01/07 02:54:28;;;;;;;0.20;0.20;;;8.70;99.90;;;;;;5042241;28;20055;-75
2024/01/07 02:56:53;;;;;;;0.20;0.20;;;9.40;99.90;;;;;;5017978;28;20080;-75
2024/01/07 02:59:21;;;;;;;0.20;0.20;;;8.50;99.90;;;;;;5040859;28;20044;-75
2024/01/07 03:01:47;;;;;;;0.10;0.10;;;8.50;99.90;;;;;;5020058;28;20025;-75
2024/01/07 03:04:16;;;;;;;0.20;0.20;;;8.50;99.90;;;;;;5019503;28;20042;-75
2024/01/07 03:06:45;;;;;;;0.20;0.20;;;8.40;99.90;;;;;;5023748;28;20034;-75
2024/01/07 03:09:11;;;;;;;0.20;0.20;;;8.40;99.90;;;;;;5044499;28;20539;-75
2024/01/07 03:11:43;;;;;;;0.20;0.20;;;8.40;99.90;;;;;;5042741;28;20184;-75
2024/01/07 03:14:10;;;;;;;0.10;0.10;;;8.40;99.90;;;;;;5028533;28;20571;-75
2024/01/07 03:16:36;;;;;;;0.10;0.10;;;8.40;99.90;;;;;;5019793;28;20571;-75
2024/01/07 03:19:21;;;;;;;0.10;0.10;;;8.40;99.90;;;;;;5034129;28;20048;-75
2024/01/07 03:21:58;;;;;;;0.10;0.10;;;8.40;99.90;;;;;;5045572;28;20006;-75
2024/01/07 03:25:02;;;;;;;0.20;0.20;;;8.40;99.90;;;;;;5018017;28;20025;-75
2024/01/07 03:27:28;;;;;;;0.20;0.20;;;8.40;99.90;;;;;;5022943;28;20061;-75
2024/01/07 03:30:20;;;;;;;0.40;0.40;;;8.40;99.90;;;;;;5021986;28;20025;-75
2024/01/07 03:32:46;;;;;;;0.13;0.13;;;8.40;99.90;;;;;;5010697;28;20060;-76
2024/01/07 03:35:12;;;;;;;0.20;0.20;;;8.40;99.90;;;;;;5021105;28;20037;-75
2024/01/07 03:37:52;;;;;;;0.10;0.10;;;8.40;99.90;;;;;;5034050;28;20595;-75
2024/01/07 03:40:29;;;;;;;2.15;2.05;;;8.40;99.90;;;;;;5026645;28;20025;-75
2024/01/07 03:42:59;;;;;;;0.13;0.13;;;8.30;99.90;;;;;;5040076;28;20017;-75
2024/01/07 03:45:37;;;;;;;0.10;0.10;;;8.30;99.90;;;;;;5040126;28;20022;-75
2024/01/07 03:48:27;;;;;;;0.17;0.17;;;8.30;99.90;;;;;;5036359;28;20051;-75
2024/01/07 03:50:52;;;;;;;0.10;0.10;;;8.40;99.90;;;;;;5042382;28;20033;-75
2024/01/07 03:53:18;;;;;;;0.20;0.20;;;8.40;99.90;;;;;;5033964;28;20001;-75
2024/01/07 03:55:55;;;;;;;0.13;0.13;;;8.50;99.90;;;;;;5043405;28;20026;-75
2024/01/07 03:58:21;;;;;;;0.20;0.20;;;8.60;99.90;;;;;;5040272;28;20034;-75
2024/01/07 04:00:47;;;;;;;0.20;0.20;;;8.60;99.90;;;;;;5027479;28;20006;-75
2024/01/07 04:03:16;;;;;;;0.20;0.20;;;8.70;99.90;;;;;;5036124;28;20026;-76
2024/01/07 04:05:55;;;;;;;0.20;0.20;;;8.70;99.90;;;;;;5030141;28;20084;-75
2024/01/07 04:08:24;;;;;;;0.65;0.65;;;8.70;99.90;;;;;;5030119;28;20045;-77
2024/01/07 04:10:51;;;;;;;0.20;0.20;;;8.70;99.90;;;;;;5028812;28;20030;-75
2024/01/07 04:13:18;;;;;;;0.20;0.20;;;8.70;99.90;;;;;;5028344;28;20025;-75
2024/01/07 04:15:51;;;;;;;1.20;1.20;;;8.80;99.90;;;;;;5041911;28;20025;-75
2024/01/07 04:18:17;;;;;;;0.10;0.10;;;8.70;99.90;;;;;;5021643;28;20056;-75
2024/01/07 04:20:43;;;;;;;2.55;2.45;;;8.60;99.90;;;;;;5033413;28;20018;-74
2024/01/07 04:23:10;;;;;;;0.13;0.13;;;8.60;99.90;;;;;;5032120;28;20028;-75
2024/01/07 04:25:35;;;;;;;0.10;0.10;;;8.50;99.90;;;;;;5027757;28;20037;-75
2024/01/07 04:28:01;;;;;;;0.10;0.10;;;8.40;99.90;;;;;;5037443;28;20022;-75
2024/01/07 04:30:27;;;;;;;0.20;0.20;;;8.50;99.90;;;;;;5041092;28;20021;-75
2024/01/07 04:32:53;;;;;;;0.20;0.20;;;8.40;99.90;;;;;;5031373;28;20087;-75
2024/01/07 04:35:19;;;;;;;0.20;0.20;;;8.30;99.90;;;;;;5025376;28;20029;-76
2024/01/07 04:37:46;;;;;;;0.10;0.10;;;;;;;;;;5024003;28;20491;-75
2024/01/07 04:40:12;;;;;;;0.20;0.20;;;8.30;99.90;;;;;;5023871;28;20055;-76
2024/01/07 04:42:38;;;;;;;0.20;0.20;;;8.30;99.90;;;;;;5031149;28;20029;-75
2024/01/07 04:45:04;;;;;;;0.20;0.20;;;8.40;99.90;;;;;;5023032;28;20021;-75
2024/01/07 04:47:33;;;;;;;0.30;0.30;;;8.40;99.90;;;;;;5019190;28;20688;-75
2024/01/07 04:49:59;;;;;;;0.20;0.20;;;8.40;99.90;;;;;;5009202;28;20104;-75
2024/01/07 04:52:25;;;;;;;0.20;0.20;;;8.40;99.90;;;;;;5028893;28;20648;-76
2024/01/07 04:54:54;;;;;;;0.13;0.13;;;8.50;99.90;;;;;;5023458;28;20029;-75
2024/01/07 04:57:20;;;;;;;0.17;0.17;;;8.50;99.90;;;;;;5007728;28;20052;-75
2024/01/07 04:59:47;;;;;;;0.20;0.20;;;8.50;99.90;;;;;;5023170;28;20100;-75
2024/01/07 05:02:13;;;;;;;0.40;0.40;;;8.60;99.90;;;;;;5029166;28;20763;-75
2024/01/07 05:04:39;;;;;;;0.20;0.20;;;8.60;99.90;;;;;;5022850;28;20117;-75
2024/01/07 05:07:05;;;;;;;0.20;0.20;;;8.60;99.90;;;;;;5025011;28;20648;-74
2024/01/07 05:09:33;;;;;;;0.20;0.20;;;8.60;99.90;;;;;;5021626;28;20049;-75
2024/01/07 05:11:59;;;;;;;0.20;0.20;;;8.70;99.90;;;;;;5021547;28;20022;-75
2024/01/07 05:14:33;;;;;;;0.30;0.30;;;8.60;99.90;;;;;;5025295;28;20703;-75
2024/01/07 05:17:00;;;;;;;0.20;0.20;;;8.60;99.90;;;;;;5027499;28;20021;-73
2024/01/07 05:19:29;;;;;;;0.38;0.38;;;8.60;99.90;;;;;;5026603;28;20668;-76
2024/01/07 05:21:57;;;;;;;0.20;0.20;;;8.60;99.90;;;;;;5029614;28;20045;-75
2024/01/07 05:24:25;;;;;;;9.07;8.32;;;8.60;99.90;;;;;;5032906;28;20044;-76
2024/01/07 05:26:51;;;;;;;0.20;0.20;;;8.60;99.90;;;;;;5037549;28;20044;-76
2024/01/07 05:29:16;;;;;;;0.25;0.25;;;8.60;99.90;;;;;;5038214;28;20108;-76
2024/01/07 05:31:45;;;;;;;2.95;2.85;;;8.60;99.90;;;;;;5025479;28;20643;-76
2024/01/07 05:34:15;;;;;;;0.20;0.20;;;8.40;99.90;;;;;;5034146;28;20021;-76
2024/01/07 05:36:42;;;;;;;6.60;6.07;;;8.40;99.90;;;;;;5028743;28;20014;-76
2024/01/07 05:39:09;;;;;;;0.20;0.20;;;8.40;99.90;;;;;;5031124;28;20218;-76
2024/01/07 05:41:43;;;;;;;0.20;0.20;;;8.40;99.90;;;;;;5025988;28;20014;-75
2024/01/07 05:44:10;;;;;;;2.45;2.35;;;8.40;99.90;;;;;;5024269;28;20017;-76
2024/01/07 05:46:43;;;;;;;0.20;0.20;;;8.40;99.90;;;;;;5023127;28;20021;-76
2024/01/07 05:49:10;;;;;;;0.45;0.45;;;8.40;99.90;;;;;;5024369;28;20144;-76
2024/01/07 05:51:46;;;;;;;15.40;14.07;;;8.30;99.90;;;;;;5030272;28;20025;-75
2024/01/07 05:54:16;;;;;;;0.20;0.20;;;8.10;99.90;;;;;;5031339;28;20030;-75
2024/01/07 05:56:42;;;;;;;0.20;0.20;;;8.10;99.90;;;;;;5011910;28;20037;-76
2024/01/07 05:59:08;;;;;;;0.20;0.20;;;8.00;99.90;;;;;;5031760;28;20691;-77
2024/01/07 06:01:34;;;;;;;0.20;0.20;;;7.90;99.90;;;;;;5033393;28;20021;-76
2024/01/07 06:04:05;;;;;;;0.20;0.20;;;7.90;99.90;;;;;;5033069;28;20075;-76
2024/01/07 06:06:31;;;;;;;0.88;0.88;;;7.80;99.90;;;;;;5028929;28;20191;-76
2024/01/07 06:08:57;;;;;;;0.30;0.30;;;7.80;99.90;;;;;;5029369;28;20519;-76
2024/01/07 06:11:24;;;;;;;0.17;0.17;;;7.80;99.90;;;;;;5032244;28;20089;-76
2024/01/07 06:13:50;;;;;;;0.20;0.20;;;7.70;99.90;;;;;;5031788;28;20014;-76
2024/01/07 06:16:17;;;;;;;0.10;0.10;;;7.70;99.90;;;;;;5013952;28;20029;-76
2024/01/07 06:18:45;;;;;;;0.17;0.17;;;7.70;99.90;;;;;;5035841;28;20085;-77
2024/01/07 06:21:12;;;;;;;0.10;0.10;;;7.70;99.90;;;;;;5047988;28;20018;-76
2024/01/07 06:23:38;;;;;;;0.10;0.10;;;7.70;99.90;;;;;;5049243;28;20766;-76
2024/01/07 06:26:05;;;;;;;0.20;0.20;;;7.70;99.90;;;;;;5050105;28;20018;-77
2024/01/07 06:29:00;;;;;;;0.10;0.10;;;7.70;99.90;;;;;;5049948;28;20068;-76
2024/01/07 06:31:26;;;;;;;0.20;0.20;;;7.70;99.90;;;;;;5054135;28;20033;-77
2024/01/07 06:33:53;;;;;;;0.10;0.10;;;7.80;99.90;;;;;;5052163;28;20688;-76
2024/01/07 06:36:47;;;;;;;0.10;0.10;;;7.90;99.90;;;;;;5051435;28;20052;-76
2024/01/07 06:39:16;;;;;;;0.10;0.10;;;8.00;99.90;;;;;;5050907;28;20086;-76
2024/01/07 06:42:16;;;;;;;10.80;9.80;;;8.00;99.90;;;;;;5051701;28;20033;-78
2024/01/07 06:44:36;;;;;;;0.10;0.10;;;7.90;99.90;;;;;;5009018;28;20029;-77
2024/01/07 06:47:08;;;;;;;0.20;0.20;;;7.90;99.90;;;;;;4999354;28;20034;-76
2024/01/07 06:49:34;;;;;;;0.28;0.28;;;7.80;99.90;;;;;;4988978;28;20109;-76
2024/01/07 06:52:06;;;;;;;0.20;0.20;;;7.90;99.90;;;;;;4989658;28;20056;-77
2024/01/07 06:54:36;;;;;;;0.10;0.10;;;8.00;99.90;;;;;;5011406;28;20086;-76
2024/01/07 06:57:29;;;;;;;0.10;0.10;;;7.90;99.90;;;;;;4978723;28;20081;-76
2024/01/07 07:00:12;;;;;;;0.13;0.13;;;8.00;99.90;;;;;;5008004;28;20060;-77
2024/01/07 07:03:05;;;;;;;0.20;0.20;;;8.50;99.90;;;;;;4978620;28;20119;-76
2024/01/07 07:05:32;;;;;;;0.20;0.20;;;8.20;99.90;;;;;;5049998;23;20639;-77
2024/01/07 07:08:21;;;;;;;0.10;0.10;;;9.00;99.90;;;;;;5053540;28;20020;-80
2024/01/07 07:11:04;;;;;;;0.20;0.20;;;9.70;99.90;;;;;;5008478;28;20062;-77
2024/01/07 07:13:32;;;;;;;0.20;0.20;;;8.40;99.90;;;;;;5026965;28;20550;-76
2024/01/07 07:18:58;;;;;;;0.10;0.10;;;;;;;;;;5035388;26;20057;-79
2024/01/07 07:21:56;;;;;;;0.20;0.20;;;8.50;99.90;;;;;;5035999;28;20244;-79
2024/01/07 07:27:16;;;;;;;0.55;0.55;;;8.50;99.90;;;;;;4975913;23;20040;-76
2024/01/07 07:29:42;;;;;;;0.10;0.10;;;8.50;99.90;;;;;;5050180;28;20071;-79
2024/01/07 07:32:35;;;;;;;0.20;0.20;;;8.60;99.90;;;;;;5044912;28;20017;-76
2024/01/07 07:35:01;;;;;;;0.20;0.20;;;8.60;99.90;;;;;;5053751;28;20091;-80
2024/01/07 07:37:31;;;;;;;0.77;0.77;;;8.60;99.90;;;;;;5048416;28;20643;-75
2024/01/07 07:39:59;;;;;;;0.75;0.75;;;8.60;99.90;;;;;;5050913;28;20020;-77
2024/01/07 07:42:25;;;;;;;0.10;0.10;;;8.60;99.90;;;;;;5068165;28;20064;-78
2024/01/07 07:44:54;;;;;;;0.20;0.20;;;8.60;99.90;;;;;;5069221;28;20017;-77
2024/01/07 07:47:22;;;;;;;0.15;0.15;;;8.60;99.90;;;;;;5060576;28;20092;-76
2024/01/07 07:49:50;;;;;;;3.10;2.85;;;9.00;99.90;;;;;;5054174;28;20088;-76
2024/01/07 07:52:23;;;;;;;0.20;0.20;;;8.60;99.90;;;;;;5054503;28;20036;-76
2024/01/07 07:54:49;;;;;;;0.30;0.30;;;8.60;99.90;;;;;;5047971;28;20101;-76
2024/01/07 07:57:16;;;;;;;0.10;0.10;;;8.70;99.90;;;;;;5059975;28;20039;-76
2024/01/07 08:02:40;;;;;;;0.20;0.20;;;8.70;99.90;;;;;;5076483;23;20040;-77
2024/01/07 08:05:09;;;;;;;0.32;0.32;;;8.70;99.90;;;;;;5064243;28;20055;-77
2024/01/07 08:07:35;;;;;;;0.20;0.20;;;8.80;99.90;;;;;;5087907;28;20035;-77
2024/01/07 08:10:28;;;;;;;0.40;0.40;;;8.80;99.90;;;;;;5088928;28;20028;-77
2024/01/07 08:12:55;;;;;;;0.20;0.20;;;8.90;99.90;;;;;;5075920;28;20020;-76
2024/01/07 08:15:21;;;;;;;0.88;0.88;;;8.80;99.90;;;;;;5077841;28;20033;-77
2024/01/07 08:17:47;;;;;;;0.15;0.15;;;8.80;99.90;;;;;;5083151;28;20035;-77
2024/01/07 08:20:15;;;;;;;0.20;0.20;;;8.90;99.90;;;;;;5074806;28;20009;-77
2024/01/07 08:22:52;;;;;;;0.10;0.10;;;8.90;99.90;;;;;;5075605;28;20008;-77
2024/01/07 08:25:29;;;;;;;23.60;16.77;;;8.90;99.90;;;;;;5059773;28;20025;-81
2024/01/07 08:28:01;;;;;;;3.45;3.30;;;8.90;99.90;;;;;;5078033;28;20013;-77
2024/01/07 08:30:28;;;;;;;0.50;0.50;;;9.00;99.90;;;;;;5077363;28;20617;-76
2024/01/07 08:32:54;;;;;;;4.35;4.03;;;9.30;99.90;;;;;;5077010;28;20028;-77
2024/01/07 08:35:23;;;;;;;0.30;0.30;;;8.50;99.90;;;;;;5074288;28;20024;-76
2024/01/07 08:37:51;;;;;;;0.68;0.68;;;10.00;99.90;;;;;;5044300;28;20028;-77
2024/01/07 08:40:18;;;;;;;2.58;2.47;;;9.20;99.90;;;;;;5076002;23;20095;-77
2024/01/07 08:45:28;;;;;;;0.20;0.20;;;8.80;99.90;;;;;;5296322;22;20787;-78
2024/01/07 08:47:55;;;;;;;0.25;0.25;;;8.80;99.90;;;;;;5091469;28;20274;-78
2024/01/07 08:50:29;;;;;;;0.10;0.10;;;8.90;99.90;;;;;;5092500;28;20635;-80
2024/01/07 08:53:02;;;;;;;55.28;50.20;;;8.60;99.90;;;;;;5089861;28;20026;-79
2024/01/07 08:55:28;;;;;;;0.20;0.20;;;9.90;99.90;;;;;;5092296;28;20016;-78
2024/01/07 08:57:54;;;;;;;0.22;0.22;;;9.70;99.90;;;;;;5093055;28;20035;-78
2024/01/07 09:00:25;;;;;;;1.83;1.77;;;9.40;99.90;;;;;;5091877;28;20020;-77
2024/01/07 09:02:51;;;;;;;1.10;1.10;;;9.30;99.90;;;;;;5088187;28;20440;-78
2024/01/07 09:05:26;;;;;;;0.47;0.47;;;9.00;99.90;;;;;;5097849;28;20631;-78
2024/01/07 09:07:52;;;;;;;0.70;0.70;;;8.90;99.90;;;;;;5090975;28;20027;-78
2024/01/07 09:10:20;;;;;;;0.15;0.15;;;8.90;99.90;;;;;;5093871;28;20103;-79
2024/01/07 09:12:58;;;;;;;0.25;0.25;;;8.90;99.90;;;;;;5103997;28;20646;-77
2024/01/07 09:15:24;;;;;;;0.40;0.40;;;9.10;99.90;;;;;;5100498;28;20040;-79
2024/01/07 09:17:56;;;;;;;6.50;6.28;;;8.70;99.90;;;;;;5101074;28;20042;-79
2024/01/07 09:20:28;;;;;;;0.20;0.20;;;8.70;99.90;;;;;;5100836;28;20009;-78
2024/01/07 09:22:54;;;;;;;0.13;0.13;;;8.60;99.90;;;;;;5097190;28;20023;-78
2024/01/07 09:25:32;;;;;;;0.10;0.10;;;;;;;;;;5099397;28;20016;-78
2024/01/07 09:27:57;;;;;;;0.60;0.60;;;8.40;99.90;;;;;;5098073;28;20020;-78
2024/01/07 09:30:26;;;;;;;0.10;0.10;;;8.40;99.90;;;;;;5103690;28;20075;-78
2024/01/07 09:32:52;;;;;;;1.60;1.52;;;8.30;99.90;;;;;;5101715;28;20738;-78
2024/01/07 09:35:18;;;;;;;0.60;0.60;;;8.20;99.90;;;;;;5103008;28;20036;-77
2024/01/07 09:37:48;;;;;;;0.20;0.20;;;8.20;99.90;;;;;;5098141;28;20016;-78
2024/01/07 09:40:26;;;;;;;0.10;0.10;;;8.00;99.90;;;;;;5100019;28;20068;-78
2024/01/07 09:42:52;;;;;;;0.20;0.20;;;;;;;;;;5104989;28;20436;-78
2024/01/07 09:45:23;;;;;;;0.45;0.45;;;8.00;99.90;;;;;;5094531;23;20056;-78
2024/01/07 09:47:52;;;;;;;0.10;0.10;;;8.00;99.90;;;;;;5086645;28;20047;-78
2024/01/07 09:50:17;;;;;;;0.45;0.45;;;8.00;99.90;;;;;;5064703;28;20036;-78
2024/01/07 09:53:11;;;;;;;0.17;0.17;;;8.00;99.90;;;;;;5085756;28;20092;-79
2024/01/07 09:56:13;;;;;;;0.15;0.15;;;8.00;99.90;;;;;;5019371;28;20577;-79
2024/01/07 09:58:42;;;;;;;2.10;2.05;;;9.30;99.90;;;;;;5017296;28;20080;-78
2024/01/07 10:01:12;;;;;;;9.77;8.77;;;8.00;99.90;;;;;;5017641;28;20038;-81
2024/01/07 10:03:46;;;;;;;0.20;0.20;;;8.60;99.90;;;;;;5020346;28;20044;-77
2024/01/07 10:06:29;;;;;;;1.17;1.17;;;8.00;99.90;;;;;;5019100;28;20053;-76
2024/01/07 10:09:01;;;;;;;0.20;0.20;;;7.90;99.90;;;;;;5013723;28;20042;-79
2024/01/07 10:11:26;;;;;;;0.32;0.32;;;8.00;99.90;;;;;;4998465;28;20041;-78
2024/01/07 10:13:54;;;;;;;0.20;0.20;;;7.90;99.90;;;;;;5011455;28;20045;-77
2024/01/07 10:16:22;;;;;;;0.10;0.10;;;7.90;99.90;;;;;;5013559;28;20065;-78
2024/01/07 10:18:57;;;;;;;0.10;0.10;;;7.80;99.90;;;;;;5019913;28;20335;-78
2024/01/07 10:21:26;;;;;;;0.10;0.10;;;7.30;99.90;;;;;;5003326;28;20595;-76
2024/01/07 10:24:13;;;;;;;0.10;0.10;;;7.80;99.90;;;;;;5015287;28;20034;-77
2024/01/07 10:26:41;;;;;;;0.10;0.10;;;7.70;99.90;;;;;;5018247;28;20105;-77
2024/01/07 10:29:08;;;;;;;0.10;0.10;;;;;;;;;;5017272;28;20045;-78
2024/01/07 10:31:34;;;;;;;0.40;0.40;;;7.70;99.90;;;;;;5011522;28;20085;-77
2024/01/07 10:34:13;;;;;;;0.10;0.10;;;7.70;99.90;;;;;;5031922;28;20054;-77
2024/01/07 10:36:42;;;;;;;0.10;0.10;;;7.70;99.90;;;;;;5063302;28;20021;-76
2024/01/07 10:39:13;;;;;;;0.10;0.10;;;7.70;99.90;;;;;;5062393;28;20059;-76
2024/01/07 10:41:42;;;;;;;0.10;0.10;;;7.60;99.90;;;;;;5059816;28;20025;-76
2024/01/07 10:44:08;;;;;;;0.20;0.20;;;7.80;99.90;;;;;;5054676;28;20730;-76
2024/01/07 10:46:44;;;;;;;0.30;0.30;;;7.90;99.90;;;;;;5061151;28;20025;-82
2024/01/07 10:49:24;;;;;;;0.20;0.20;;;7.90;99.90;;;;;;5050035;28;20120;-77
2024/01/07 10:52:11;;;;;;;0.10;0.10;;;9.00;99.90;;;;;;5081276;28;20040;-79
2024/01/07 10:54:47;;;;;;;0.20;0.20;;;7.80;99.90;;;;;;5100418;28;20038;-78
2024/01/07 10:57:35;;;;;;;0.30;0.30;;;7.70;99.90;;;;;;5105142;28;20276;-79
2024/01/07 11:00:07;;;;;;;0.10;0.10;;;7.70;99.90;;;;;;5102574;28;20023;-78
2024/01/07 11:02:51;;;;;;;0.35;0.35;;;7.80;99.90;;;;;;5098672;28;20036;-78
2024/01/07 11:05:32;;;;;;;;;;;7.80;99.90;;;;;;5099181;28;20012;-79
2024/01/07 11:08:27;;;;;;;0.10;0.10;;;7.70;99.90;;;;;;5101769;28;19911;-82
2024/01/07 11:11:11;;;;;;;0.15;0.15;;;7.60;99.90;;;;;;5103500;28;20088;-78
2024/01/07 11:13:38;;;;;;;0.10;0.10;;;7.60;99.90;;;;;;5106078;28;20024;-78
2024/01/07 11:16:14;;;;;;;0.20;0.20;;;7.70;99.90;;;;;;5085746;28;20036;-78
2024/01/07 11:18:52;;;;;;;0.20;0.20;;;7.70;99.90;;;;;;5103664;28;20016;-80
2024/01/07 11:21:26;;;;;;;0.20;0.20;;;7.70;99.90;;;;;;5081642;28;20063;-80
2024/01/07 11:23:53;;;;;;;0.20;0.20;;;7.70;99.90;;;;;;5105023;28;20044;-77
2024/01/07 11:26:28;;;;;;;0.20;0.20;;;7.70;99.90;;;;;;5104550;28;20015;-78
2024/01/07 11:29:00;;;;;;;0.43;0.43;;;7.60;99.90;;;;;;5100170;28;20312;-82
2024/01/07 11:31:50;;;;;;;30.48;29.23;;;7.60;99.90;;;;;;5097639;28;20667;-78
2024/01/07 11:34:46;;;;;;;0.20;0.20;;;7.60;99.90;;;;;;5089340;28;20051;-79
2024/01/07 11:37:13;;;;;;;0.13;0.13;;;6.30;99.90;;;;;;5091629;28;20043;-81
2024/01/07 11:39:50;;;;;;;0.20;0.20;;;7.50;99.90;;;;;;5092351;28;20015;-79
2024/01/07 11:42:19;;;;;;;0.10;0.10;;;7.50;99.90;;;;;;5090140;28;20462;-80
2024/01/07 11:44:56;;;;;;;0.20;0.20;;;7.40;99.90;;;;;;5086851;28;20074;-77
2024/01/07 11:47:23;;;;;;;0.10;0.10;;;7.40;99.90;;;;;;5086262;28;20029;-78
2024/01/07 11:49:53;;;;;;;0.73;0.73;;;7.30;99.90;;;;;;5086755;28;20023;-78
2024/01/07 11:52:19;;;;;;;0.88;0.88;;;7.40;99.90;;;;;;5087214;28;20370;-78
2024/01/07 11:54:47;;;;;;;0.20;0.20;;;7.40;99.90;;;;;;5084544;28;20039;-79
2024/01/07 11:57:13;;;;;;;0.10;0.10;;;7.40;99.90;;;;;;5091113;28;20023;-80
2024/01/07 11:59:42;;;;;;;0.20;0.20;;;8.70;99.90;;;;;;5097339;28;20012;-79
2024/01/07 12:02:15;;;;;;;0.20;0.20;;;7.30;99.90;;;;;;5098196;28;20039;-80
2024/01/07 12:04:41;;;;;;;0.10;0.10;;;;;;;;;;5099455;28;20077;-79
2024/01/07 12:07:17;;;;;;;0.20;0.20;;;7.20;99.90;;;;;;5095966;28;20027;-79
2024/01/07 12:09:44;;;;;;;0.10;0.10;;;7.50;99.90;;;;;;5093186;28;20032;-81
2024/01/07 12:12:10;;;;;;;0.20;0.20;;;7.50;99.90;;;;;;5098358;28;20032;-80
2024/01/07 12:14:42;;;;;;;0.10;0.10;;;7.30;99.90;;;;;;5097373;28;20032;-79
2024/01/07 12:17:23;;;;;;;0.40;0.40;;;7.30;99.90;;;;;;5097649;28;20012;-77
2024/01/07 12:19:53;;;;;;;0.10;0.10;;;7.20;99.90;;;;;;5104421;28;20054;-82
2024/01/07 12:22:18;;;;;;;0.10;0.10;;;7.10;99.90;;;;;;5094048;28;20047;-75
2024/01/07 12:25:00;;;;;;;0.20;0.20;;;7.10;99.90;;;;;;5098261;28;20523;-81
2024/01/07 12:27:26;;;;;;;0.10;0.10;;;;;;;;;;5097292;28;20020;-81
2024/01/07 12:29:59;;;;;;;0.15;0.15;;;7.10;99.90;;;;;;5095394;28;20036;-76
2024/01/07 12:32:32;;;;;;;0.10;0.10;;;7.20;99.90;;;;;;5097322;28;20040;-81
2024/01/07 12:34:59;;;;;;;0.10;0.10;;;7.20;99.90;;;;;;5092892;28;20027;-77
2024/01/07 12:37:27;;;;;;;0.10;0.10;;;7.20;99.90;;;;;;5084557;28;20012;-75
2024/01/07 12:39:53;;;;;;;0.90;0.90;;;;;;;;;;5089941;28;20330;-76
2024/01/07 12:42:21;;;;;;;0.82;0.82;;;7.20;99.90;;;;;;5084825;28;20016;-73
2024/01/07 12:44:48;;;;;;;0.10;0.10;;;7.10;99.90;;;;;;5083405;28;20039;-78
2024/01/07 12:47:14;;;;;;;0.10;0.10;;;7.20;99.90;;;;;;5085488;28;20150;-77
2024/01/07 12:49:40;;;;;;;0.40;0.40;;;7.00;99.90;;;;;;5093362;28;20214;-78
2024/01/07 12:52:06;;;;;;;0.10;0.10;;;7.00;99.90;;;;;;5098650;28;20060;-80
2024/01/07 12:54:32;;;;;;;1.35;1.30;;;6.90;99.90;;;;;;5101061;28;20046;-78
2024/01/07 12:56:58;;;;;;;0.10;0.10;;;7.00;99.90;;;;;;5096423;28;20020;-79
2024/01/07 12:59:23;;;;;;;0.00;0.00;;;6.90;99.90;;;;;;5099872;28;20020;-81
2024/01/07 13:01:51;;;;;;;0.17;0.17;;;6.90;99.90;;;;;;5099762;28;20035;-78
2024/01/07 13:04:17;;;;;;;0.10;0.10;;;6.90;99.90;;;;;;5099747;28;20134;-78
2024/01/07 13:06:46;;;;;;;0.10;0.10;;;6.80;99.90;;;;;;5103517;28;20023;-76
2024/01/07 13:09:12;;;;;;;24.80;9.40;;;6.80;99.90;;;;;;5096775;28;20023;-76
2024/01/07 13:11:42;;;;;;;0.10;0.10;;;6.80;99.90;;;;;;5092519;28;20028;-78
2024/01/07 13:14:08;;;;;;;0.20;0.20;;;6.80;99.90;;;;;;5098385;28;20052;-74
2024/01/07 13:16:49;;;;;;;0.10;0.10;;;7.00;99.90;;;;;;5101401;28;20047;-76
2024/01/07 13:19:18;;;;;;;0.10;0.10;;;7.10;99.90;;;;;;5100750;28;20073;-76
2024/01/07 13:21:45;;;;;;;0.20;0.20;;;7.10;99.90;;;;;;5099511;28;20016;-76
2024/01/07 13:24:11;;;;;;;0.20;0.20;;;;;;;;;;5094326;28;20016;-75
2024/01/07 13:26:37;;;;;;;3.90;3.60;;;7.20;99.90;;;;;;5086088;28;20020;-81
2024/01/07 13:29:05;;;;;;;0.10;0.10;;;;;;;;;;5091587;28;20034;-79
2024/01/07 13:31:31;;;;;;;0.20;0.20;;;7.90;99.90;;;;;;5095783;28;20127;-75
2024/01/07 13:33:58;;;;;;;3.80;3.70;;;7.90;99.90;;;;;;5090787;28;20075;-78